sensor_id;sensor_type;location;lat;lon;timestamp;temperature;humidity
8965;DHT22;4517;49.020;12.066;2022-12-18T00:01:19;-4.50;99.90
8965;DHT22;4517;49.020;12.066;2022-12-18T00:03:46;-4.60;99.90
8965;DHT22;4517;49.020;12.066;2022-12-18T00:06:11;-4.60;99.90
8965;DHT22;4517;49.020;12.066;2022-12-18T00:08:39;-4.50;99.90
8965;DHT22;4517;49.020;12.066;2022-12-18T00:11:11;-4.50;99.90
8965;DHT22;4517;49.020;12.066;2022-12-18T00:13:37;-4.50;99.90
8965;DHT22;4517;49.020;12.066;2022-12-18T00:16:04;-4.50;99.90
8965;DHT22;4517;49.020;12.066;2022-12-18T00:18:30;-4.40;99.90
8965;DHT22;4517;49.020;12.066;2022-12-18T00:21:02;-4.40;99.90
8965;DHT22;4517;49.020;12.066;2022-12-18T00:23:29;-4.40;99.90
8965;DHT22;4517;49.020;12.066;2022-12-18T00:25:59;-4.40;99.90
8965;DHT22;4517;49.020;12.066;2022-12-18T00:28:25;-4.30;99.90
8965;DHT22;4517;49.020;12.066;2022-12-18T00:30:50;-4.30;99.90
8965;DHT22;4517;49.020;12.066;2022-12-18T00:33:17;-4.30;99.90
8965;DHT22;4517;49.020;12.066;2022-12-18T00:35:43;-4.30;99.90
8965;DHT22;4517;49.020;12.066;2022-12-18T00:38:08;-4.30;99.90
8965;DHT22;4517;49.020;12.066;2022-12-18T00:40:33;-4.30;99.90
8965;DHT22;4517;49.020;12.066;2022-12-18T00:42:59;-4.30;99.90
8965;DHT22;4517;49.020;12.066;2022-12-18T00:45:27;-4.30;99.90
8965;DHT22;4517;49.020;12.066;2022-12-18T00:47:54;-4.20;99.90
8965;DHT22;4517;49.020;12.066;2022-12-18T00:50:20;-4.20;99.90
8965;DHT22;4517;49.020;12.066;2022-12-18T00:52:45;-4.20;99.90
8965;DHT22;4517;49.020;12.066;2022-12-18T00:55:12;-4.20;99.90
8965;DHT22;4517;49.020;12.066;2022-12-18T00:57:37;-4.20;99.90
8965;DHT22;4517;49.020;12.066;2022-12-18T01:00:05;-4.10;99.90
8965;DHT22;4517;49.020;12.066;2022-12-18T01:02:31;-4.10;99.90
8965;DHT22;4517;49.020;12.066;2022-12-18T01:04:56;-4.10;99.90
8965;DHT22;4517;49.020;12.066;2022-12-18T01:07:22;-4.10;99.90
8965;DHT22;4517;49.020;12.066;2022-12-18T01:09:47;-4.10;99.90
8965;DHT22;4517;49.020;12.066;2022-12-18T01:12:13;-4.10;99.90
8965;DHT22;4517;49.020;12.066;2022-12-18T01:14:38;-4.10;99.90
8965;DHT22;4517;49.020;12.066;2022-12-18T01:17:04;-4.10;99.90
8965;DHT22;4517;49.020;12.066;2022-12-18T01:19:30;-4.00;99.90
8965;DHT22;4517;49.020;12.066;2022-12-18T01:21:55;-4.10;99.90
8965;DHT22;4517;49.020;12.066;2022-12-18T01:24:21;-4.10;99.90
8965;DHT22;4517;49.020;12.066;2022-12-18T01:26:47;-4.10;99.90
8965;DHT22;4517;49.020;12.066;2022-12-18T01:29:12;-4.10;99.90
8965;DHT22;4517;49.020;12.066;2022-12-18T01:31:38;-4.00;99.90
8965;DHT22;4517;49.020;12.066;2022-12-18T01:34:04;-4.00;99.90
8965;DHT22;4517;49.020;12.066;2022-12-18T01:36:35;-4.00;99.90
8965;DHT22;4517;49.020;12.066;2022-12-18T01:39:10;-4.00;99.90
8965;DHT22;4517;49.020;12.066;2022-12-18T01:41:36;-4.00;99.90
8965;DHT22;4517;49.020;12.066;2022-12-18T01:47:29;-4.00;99.90
8965;DHT22;4517;49.020;12.066;2022-12-18T01:49:57;-4.00;99.90
8965;DHT22;4517;49.020;12.066;2022-12-18T01:52:25;-4.00;99.90
8965;DHT22;4517;49.020;12.066;2022-12-18T01:54:53;-4.00;99.90
8965;DHT22;4517;49.020;12.066;2022-12-18T01:57:20;-4.00;99.90
8965;DHT22;4517;49.020;12.066;2022-12-18T01:59:49;-4.00;99.90
8965;DHT22;4517;49.020;12.066;2022-12-18T02:02:16;-4.00;99.90
8965;DHT22;4517;49.020;12.066;2022-12-18T02:04:42;-4.10;99.90
8965;DHT22;4517;49.020;12.066;2022-12-18T02:07:24;-4.10;99.90
8965;DHT22;4517;49.020;12.066;2022-12-18T02:10:00;-4.10;99.90
8965;DHT22;4517;49.020;12.066;2022-12-18T02:12:34;-4.10;99.90
8965;DHT22;4517;49.020;12.066;2022-12-18T02:15:15;-4.00;99.90
8965;DHT22;4517;49.020;12.066;2022-12-18T02:17:55;-4.00;99.90
8965;DHT22;4517;49.020;12.066;2022-12-18T02:20:31;-4.00;99.90
8965;DHT22;4517;49.020;12.066;2022-12-18T02:26:12;-3.90;99.90
8965;DHT22;4517;49.020;12.066;2022-12-18T02:31:17;-3.90;99.90
8965;DHT22;4517;49.020;12.066;2022-12-18T02:33:45;-4.00;99.90
8965;DHT22;4517;49.020;12.066;2022-12-18T02:36:12;-4.00;99.90
8965;DHT22;4517;49.020;12.066;2022-12-18T02:38:39;-4.00;99.90
8965;DHT22;4517;49.020;12.066;2022-12-18T02:41:06;-4.00;99.90
8965;DHT22;4517;49.020;12.066;2022-12-18T02:43:32;-3.90;99.90
8965;DHT22;4517;49.020;12.066;2022-12-18T02:45:59;-3.90;99.90
8965;DHT22;4517;49.020;12.066;2022-12-18T02:48:29;-4.00;99.90
8965;DHT22;4517;49.020;12.066;2022-12-18T02:51:22;-3.90;99.90
8965;DHT22;4517;49.020;12.066;2022-12-18T02:53:56;-3.90;99.90
8965;DHT22;4517;49.020;12.066;2022-12-18T02:56:35;-3.90;99.90
8965;DHT22;4517;49.020;12.066;2022-12-18T02:59:13;-4.00;99.90
8965;DHT22;4517;49.020;12.066;2022-12-18T03:02:16;-4.00;99.90
8965;DHT22;4517;49.020;12.066;2022-12-18T03:04:59;-4.00;99.90
8965;DHT22;4517;49.020;12.066;2022-12-18T03:07:40;-4.00;99.90
8965;DHT22;4517;49.020;12.066;2022-12-18T03:10:08;-4.00;99.90
8965;DHT22;4517;49.020;12.066;2022-12-18T03:12:38;-4.00;99.90
8965;DHT22;4517;49.020;12.066;2022-12-18T03:15:21;-4.00;99.90
8965;DHT22;4517;49.020;12.066;2022-12-18T03:17:56;-4.10;99.90
8965;DHT22;4517;49.020;12.066;2022-12-18T03:20:24;-4.10;99.90
8965;DHT22;4517;49.020;12.066;2022-12-18T03:22:55;-4.00;99.90
8965;DHT22;4517;49.020;12.066;2022-12-18T03:25:24;-4.10;99.90
8965;DHT22;4517;49.020;12.066;2022-12-18T03:27:54;-4.10;99.90
8965;DHT22;4517;49.020;12.066;2022-12-18T03:30:22;-4.10;99.90
8965;DHT22;4517;49.020;12.066;2022-12-18T03:33:02;-4.10;99.90
8965;DHT22;4517;49.020;12.066;2022-12-18T03:35:34;-4.10;99.90
8965;DHT22;4517;49.020;12.066;2022-12-18T03:38:00;-4.10;99.90
8965;DHT22;4517;49.020;12.066;2022-12-18T03:43:52;-4.10;99.90
8965;DHT22;4517;49.020;12.066;2022-12-18T03:49:18;-4.10;99.90
8965;DHT22;4517;49.020;12.066;2022-12-18T03:51:52;-4.10;99.90
8965;DHT22;4517;49.020;12.066;2022-12-18T03:54:20;-4.10;99.90
8965;DHT22;4517;49.020;12.066;2022-12-18T03:56:49;-4.10;99.90
8965;DHT22;4517;49.020;12.066;2022-12-18T03:59:19;-4.10;99.90
8965;DHT22;4517;49.020;12.066;2022-12-18T04:01:50;-4.10;99.90
8965;DHT22;4517;49.020;12.066;2022-12-18T04:04:18;-4.10;99.90
8965;DHT22;4517;49.020;12.066;2022-12-18T04:06:45;-4.10;99.90
8965;DHT22;4517;49.020;12.066;2022-12-18T04:09:12;-4.10;99.90
8965;DHT22;4517;49.020;12.066;2022-12-18T04:11:40;-4.20;99.90
8965;DHT22;4517;49.020;12.066;2022-12-18T04:14:06;-4.20;99.90
8965;DHT22;4517;49.020;12.066;2022-12-18T04:16:31;-4.10;99.90
8965;DHT22;4517;49.020;12.066;2022-12-18T04:18:57;-4.10;99.90
8965;DHT22;4517;49.020;12.066;2022-12-18T04:21:22;-4.10;99.90
8965;DHT22;4517;49.020;12.066;2022-12-18T04:23:48;-4.10;99.90
8965;DHT22;4517;49.020;12.066;2022-12-18T04:26:14;-4.10;99.90
8965;DHT22;4517;49.020;12.066;2022-12-18T04:28:39;-4.10;99.90
8965;DHT22;4517;49.020;12.066;2022-12-18T04:31:05;-4.20;99.90
8965;DHT22;4517;49.020;12.066;2022-12-18T04:33:30;-4.10;99.90
8965;DHT22;4517;49.020;12.066;2022-12-18T04:35:56;-4.10;99.90
8965;DHT22;4517;49.020;12.066;2022-12-18T04:38:21;-4.10;99.90
8965;DHT22;4517;49.020;12.066;2022-12-18T04:40:47;-4.10;99.90
8965;DHT22;4517;49.020;12.066;2022-12-18T04:43:12;-4.00;99.90
8965;DHT22;4517;49.020;12.066;2022-12-18T04:45:38;-4.00;99.90
8965;DHT22;4517;49.020;12.066;2022-12-18T04:48:04;-4.00;99.90
8965;DHT22;4517;49.020;12.066;2022-12-18T04:50:30;-4.00;99.90
8965;DHT22;4517;49.020;12.066;2022-12-18T04:52:56;-4.00;99.90
8965;DHT22;4517;49.020;12.066;2022-12-18T04:55:22;-4.00;99.90
8965;DHT22;4517;49.020;12.066;2022-12-18T04:57:47;-4.00;99.90
8965;DHT22;4517;49.020;12.066;2022-12-18T05:00:13;-4.00;99.90
8965;DHT22;4517;49.020;12.066;2022-12-18T05:02:39;-4.00;99.90
8965;DHT22;4517;49.020;12.066;2022-12-18T05:05:05;-4.00;99.90
8965;DHT22;4517;49.020;12.066;2022-12-18T05:07:31;-4.00;99.90
8965;DHT22;4517;49.020;12.066;2022-12-18T05:09:56;-4.00;99.90
8965;DHT22;4517;49.020;12.066;2022-12-18T05:12:22;-4.10;99.90
8965;DHT22;4517;49.020;12.066;2022-12-18T05:14:47;-4.10;99.90
8965;DHT22;4517;49.020;12.066;2022-12-18T05:17:13;-4.20;99.90
8965;DHT22;4517;49.020;12.066;2022-12-18T05:19:38;-4.20;99.90
8965;DHT22;4517;49.020;12.066;2022-12-18T05:22:07;-4.20;99.90
8965;DHT22;4517;49.020;12.066;2022-12-18T05:24:32;-4.20;99.90
8965;DHT22;4517;49.020;12.066;2022-12-18T05:26:58;-4.30;99.90
8965;DHT22;4517;49.020;12.066;2022-12-18T05:29:23;-4.30;99.90
8965;DHT22;4517;49.020;12.066;2022-12-18T05:31:49;-4.30;99.90
8965;DHT22;4517;49.020;12.066;2022-12-18T05:34:14;-4.30;99.90
8965;DHT22;4517;49.020;12.066;2022-12-18T05:36:40;-4.30;99.90
8965;DHT22;4517;49.020;12.066;2022-12-18T05:39:05;-4.30;99.90
8965;DHT22;4517;49.020;12.066;2022-12-18T05:41:31;-4.30;99.90
8965;DHT22;4517;49.020;12.066;2022-12-18T05:43:58;-4.30;99.90
8965;DHT22;4517;49.020;12.066;2022-12-18T05:46:23;-4.30;99.90
8965;DHT22;4517;49.020;12.066;2022-12-18T05:48:49;-4.30;99.90
8965;DHT22;4517;49.020;12.066;2022-12-18T05:51:18;-4.30;99.90
8965;DHT22;4517;49.020;12.066;2022-12-18T05:53:43;-4.40;99.90
8965;DHT22;4517;49.020;12.066;2022-12-18T05:56:21;-4.40;99.90
8965;DHT22;4517;49.020;12.066;2022-12-18T05:58:47;-4.40;99.90
8965;DHT22;4517;49.020;12.066;2022-12-18T06:01:18;-4.50;99.90
8965;DHT22;4517;49.020;12.066;2022-12-18T06:03:44;-4.50;99.90
8965;DHT22;4517;49.020;12.066;2022-12-18T06:06:14;-4.50;99.90
8965;DHT22;4517;49.020;12.066;2022-12-18T06:08:40;-4.50;99.90
8965;DHT22;4517;49.020;12.066;2022-12-18T06:11:06;-4.50;99.90
8965;DHT22;4517;49.020;12.066;2022-12-18T06:13:31;-4.40;99.90
8965;DHT22;4517;49.020;12.066;2022-12-18T06:15:57;-4.40;99.90
8965;DHT22;4517;49.020;12.066;2022-12-18T06:18:22;-4.50;99.90
8965;DHT22;4517;49.020;12.066;2022-12-18T06:20:56;-4.50;99.90
8965;DHT22;4517;49.020;12.066;2022-12-18T06:23:22;-4.60;99.90
8965;DHT22;4517;49.020;12.066;2022-12-18T06:25:47;-4.50;99.90
8965;DHT22;4517;49.020;12.066;2022-12-18T06:28:13;-4.50;99.90
8965;DHT22;4517;49.020;12.066;2022-12-18T06:30:39;-4.50;99.90
8965;DHT22;4517;49.020;12.066;2022-12-18T06:33:04;-4.50;99.90
8965;DHT22;4517;49.020;12.066;2022-12-18T06:35:31;-4.50;99.90
8965;DHT22;4517;49.020;12.066;2022-12-18T06:37:56;-4.60;99.90
8965;DHT22;4517;49.020;12.066;2022-12-18T06:40:22;-4.60;99.90
8965;DHT22;4517;49.020;12.066;2022-12-18T06:42:47;-4.60;99.90
8965;DHT22;4517;49.020;12.066;2022-12-18T06:45:13;-4.60;99.90
8965;DHT22;4517;49.020;12.066;2022-12-18T06:47:38;-4.70;99.90
8965;DHT22;4517;49.020;12.066;2022-12-18T06:50:04;-4.70;99.90
8965;DHT22;4517;49.020;12.066;2022-12-18T06:52:32;-4.60;99.90
8965;DHT22;4517;49.020;12.066;2022-12-18T06:54:57;-4.70;99.90
8965;DHT22;4517;49.020;12.066;2022-12-18T06:57:23;-4.70;99.90
8965;DHT22;4517;49.020;12.066;2022-12-18T06:59:48;-4.60;99.90
8965;DHT22;4517;49.020;12.066;2022-12-18T07:02:14;-4.60;99.90
8965;DHT22;4517;49.020;12.066;2022-12-18T07:04:40;-4.60;99.90
8965;DHT22;4517;49.020;12.066;2022-12-18T07:07:05;-4.60;99.90
8965;DHT22;4517;49.020;12.066;2022-12-18T07:09:31;-4.60;99.90
8965;DHT22;4517;49.020;12.066;2022-12-18T07:11:57;-4.50;99.90
8965;DHT22;4517;49.020;12.066;2022-12-18T07:14:22;-4.50;99.90
8965;DHT22;4517;49.020;12.066;2022-12-18T07:16:48;-4.50;99.90
8965;DHT22;4517;49.020;12.066;2022-12-18T07:19:14;-4.50;99.90
8965;DHT22;4517;49.020;12.066;2022-12-18T07:21:39;-4.50;99.90
8965;DHT22;4517;49.020;12.066;2022-12-18T07:24:05;-4.40;99.90
8965;DHT22;4517;49.020;12.066;2022-12-18T07:26:31;-4.50;99.90
8965;DHT22;4517;49.020;12.066;2022-12-18T07:28:57;-4.40;99.90
8965;DHT22;4517;49.020;12.066;2022-12-18T07:31:24;-4.40;99.90
8965;DHT22;4517;49.020;12.066;2022-12-18T07:33:50;-4.30;99.90
8965;DHT22;4517;49.020;12.066;2022-12-18T07:36:16;-4.30;99.90
8965;DHT22;4517;49.020;12.066;2022-12-18T07:38:42;-4.20;99.90
8965;DHT22;4517;49.020;12.066;2022-12-18T07:41:10;-4.20;99.90
8965;DHT22;4517;49.020;12.066;2022-12-18T07:43:36;-4.20;99.90
8965;DHT22;4517;49.020;12.066;2022-12-18T07:46:02;-4.20;99.90
8965;DHT22;4517;49.020;12.066;2022-12-18T07:48:28;-4.20;99.90
8965;DHT22;4517;49.020;12.066;2022-12-18T07:50:58;-4.20;99.90
8965;DHT22;4517;49.020;12.066;2022-12-18T07:53:24;-4.10;99.90
8965;DHT22;4517;49.020;12.066;2022-12-18T07:55:58;-4.10;99.90
8965;DHT22;4517;49.020;12.066;2022-12-18T07:58:24;-4.10;99.90
8965;DHT22;4517;49.020;12.066;2022-12-18T08:00:50;-4.10;99.90
8965;DHT22;4517;49.020;12.066;2022-12-18T08:03:15;-4.10;99.90
8965;DHT22;4517;49.020;12.066;2022-12-18T08:05:41;-4.10;99.90
8965;DHT22;4517;49.020;12.066;2022-12-18T08:08:06;-4.00;99.90
8965;DHT22;4517;49.020;12.066;2022-12-18T08:10:32;-4.00;99.90
8965;DHT22;4517;49.020;12.066;2022-12-18T08:12:57;-4.00;99.90
8965;DHT22;4517;49.020;12.066;2022-12-18T08:15:23;-3.90;99.90
8965;DHT22;4517;49.020;12.066;2022-12-18T08:17:48;-4.00;99.90
8965;DHT22;4517;49.020;12.066;2022-12-18T08:20:14;-4.00;99.90
8965;DHT22;4517;49.020;12.066;2022-12-18T08:22:41;-3.90;99.90
8965;DHT22;4517;49.020;12.066;2022-12-18T08:25:07;-3.90;99.90
8965;DHT22;4517;49.020;12.066;2022-12-18T08:27:33;-3.90;99.90
8965;DHT22;4517;49.020;12.066;2022-12-18T08:29:58;-3.90;99.90
8965;DHT22;4517;49.020;12.066;2022-12-18T08:32:26;-3.80;99.90
8965;DHT22;4517;49.020;12.066;2022-12-18T08:34:52;-3.90;99.90
8965;DHT22;4517;49.020;12.066;2022-12-18T08:37:17;-4.00;99.90
8965;DHT22;4517;49.020;12.066;2022-12-18T08:39:43;-3.90;99.90
8965;DHT22;4517;49.020;12.066;2022-12-18T08:42:09;-3.90;99.90
8965;DHT22;4517;49.020;12.066;2022-12-18T08:44:53;-3.70;99.90
8965;DHT22;4517;49.020;12.066;2022-12-18T08:47:19;-3.80;99.90
8965;DHT22;4517;49.020;12.066;2022-12-18T08:49:44;-3.70;99.90
8965;DHT22;4517;49.020;12.066;2022-12-18T08:52:10;-3.70;99.90
8965;DHT22;4517;49.020;12.066;2022-12-18T08:54:36;-3.60;99.90
8965;DHT22;4517;49.020;12.066;2022-12-18T08:57:01;-3.70;99.90
8965;DHT22;4517;49.020;12.066;2022-12-18T08:59:27;-3.70;99.90
8965;DHT22;4517;49.020;12.066;2022-12-18T09:01:54;-3.80;99.90
8965;DHT22;4517;49.020;12.066;2022-12-18T09:04:20;-3.70;99.90
8965;DHT22;4517;49.020;12.066;2022-12-18T09:06:45;-3.60;99.90
8965;DHT22;4517;49.020;12.066;2022-12-18T09:09:11;-3.60;99.90
8965;DHT22;4517;49.020;12.066;2022-12-18T09:11:37;-3.50;99.90
8965;DHT22;4517;49.020;12.066;2022-12-18T09:14:03;-3.40;99.90
8965;DHT22;4517;49.020;12.066;2022-12-18T09:16:29;-3.40;99.90
8965;DHT22;4517;49.020;12.066;2022-12-18T09:18:55;-3.40;99.90
8965;DHT22;4517;49.020;12.066;2022-12-18T09:21:26;-3.30;99.90
8965;DHT22;4517;49.020;12.066;2022-12-18T09:23:53;-3.40;99.90
8965;DHT22;4517;49.020;12.066;2022-12-18T09:26:20;-3.60;99.90
8965;DHT22;4517;49.020;12.066;2022-12-18T09:28:45;-3.50;99.90
8965;DHT22;4517;49.020;12.066;2022-12-18T09:31:12;-3.60;99.90
8965;DHT22;4517;49.020;12.066;2022-12-18T09:33:38;-3.50;99.90
8965;DHT22;4517;49.020;12.066;2022-12-18T09:36:06;-3.40;99.90
8965;DHT22;4517;49.020;12.066;2022-12-18T09:38:32;-3.30;99.90
8965;DHT22;4517;49.020;12.066;2022-12-18T09:41:04;-3.30;99.90
8965;DHT22;4517;49.020;12.066;2022-12-18T09:43:37;-3.30;99.90
8965;DHT22;4517;49.020;12.066;2022-12-18T09:46:08;-3.20;99.90
8965;DHT22;4517;49.020;12.066;2022-12-18T09:48:40;-3.10;99.90
8965;DHT22;4517;49.020;12.066;2022-12-18T09:51:22;-3.30;99.90
8965;DHT22;4517;49.020;12.066;2022-12-18T09:54:02;-3.30;99.90
8965;DHT22;4517;49.020;12.066;2022-12-18T09:56:34;-3.30;99.90
8965;DHT22;4517;49.020;12.066;2022-12-18T09:59:02;-3.40;99.90
8965;DHT22;4517;49.020;12.066;2022-12-18T10:01:28;-3.40;99.90
8965;DHT22;4517;49.020;12.066;2022-12-18T10:03:55;-3.30;99.90
8965;DHT22;4517;49.020;12.066;2022-12-18T10:06:52;-3.20;99.90
8965;DHT22;4517;49.020;12.066;2022-12-18T10:17:55;-3.20;99.90
8965;DHT22;4517;49.020;12.066;2022-12-18T10:20:46;-2.90;99.90
8965;DHT22;4517;49.020;12.066;2022-12-18T10:23:44;-3.00;99.90
8965;DHT22;4517;49.020;12.066;2022-12-18T10:26:13;-2.90;99.90
8965;DHT22;4517;49.020;12.066;2022-12-18T10:28:40;-2.90;99.90
8965;DHT22;4517;49.020;12.066;2022-12-18T10:31:07;-3.00;99.90
8965;DHT22;4517;49.020;12.066;2022-12-18T10:33:37;-3.10;99.90
8965;DHT22;4517;49.020;12.066;2022-12-18T10:36:03;-3.10;99.90
8965;DHT22;4517;49.020;12.066;2022-12-18T10:38:31;-3.10;99.90
8965;DHT22;4517;49.020;12.066;2022-12-18T10:43:40;-3.20;99.90
8965;DHT22;4517;49.020;12.066;2022-12-18T10:51:31;-3.10;99.90
8965;DHT22;4517;49.020;12.066;2022-12-18T10:54:05;-3.10;99.90
8965;DHT22;4517;49.020;12.066;2022-12-18T10:56:33;-3.20;99.90
8965;DHT22;4517;49.020;12.066;2022-12-18T10:59:02;-3.30;99.90
8965;DHT22;4517;49.020;12.066;2022-12-18T11:01:52;-3.10;99.90
8965;DHT22;4517;49.020;12.066;2022-12-18T11:04:22;-3.10;99.90
8965;DHT22;4517;49.020;12.066;2022-12-18T11:06:59;-3.20;99.90
8965;DHT22;4517;49.020;12.066;2022-12-18T11:09:33;-3.20;99.90
8965;DHT22;4517;49.020;12.066;2022-12-18T11:12:01;-3.20;99.90
8965;DHT22;4517;49.020;12.066;2022-12-18T11:14:48;-3.20;99.90
8965;DHT22;4517;49.020;12.066;2022-12-18T11:17:29;-3.10;99.90
8965;DHT22;4517;49.020;12.066;2022-12-18T11:19:57;-3.10;99.90
8965;DHT22;4517;49.020;12.066;2022-12-18T11:22:29;-2.90;99.90
8965;DHT22;4517;49.020;12.066;2022-12-18T11:25:02;-2.90;99.90
8965;DHT22;4517;49.020;12.066;2022-12-18T11:27:29;-2.90;99.90
8965;DHT22;4517;49.020;12.066;2022-12-18T11:30:22;-2.80;99.90
8965;DHT22;4517;49.020;12.066;2022-12-18T11:32:56;-2.80;99.90
8965;DHT22;4517;49.020;12.066;2022-12-18T11:35:49;-2.70;99.90
8965;DHT22;4517;49.020;12.066;2022-12-18T11:38:24;-2.60;99.90
8965;DHT22;4517;49.020;12.066;2022-12-18T11:43:48;-2.60;99.90
8965;DHT22;4517;49.020;12.066;2022-12-18T11:46:41;-2.50;99.90
8965;DHT22;4517;49.020;12.066;2022-12-18T11:49:12;-2.50;99.90
8965;DHT22;4517;49.020;12.066;2022-12-18T11:51:45;-2.50;99.90
8965;DHT22;4517;49.020;12.066;2022-12-18T11:54:14;-2.50;99.90
8965;DHT22;4517;49.020;12.066;2022-12-18T11:56:49;-2.40;99.90
8965;DHT22;4517;49.020;12.066;2022-12-18T11:59:30;-2.30;99.90
8965;DHT22;4517;49.020;12.066;2022-12-18T12:07:20;-2.20;99.90
8965;DHT22;4517;49.020;12.066;2022-12-18T12:10:12;-2.30;99.90
8965;DHT22;4517;49.020;12.066;2022-12-18T12:18:28;-2.30;99.90
8965;DHT22;4517;49.020;12.066;2022-12-18T12:24:16;-2.10;99.90
8965;DHT22;4517;49.020;12.066;2022-12-18T12:27:29;-2.20;99.90
8965;DHT22;4517;49.020;12.066;2022-12-18T12:29:55;-2.20;99.90
8965;DHT22;4517;49.020;12.066;2022-12-18T12:33:03;-2.20;99.90
8965;DHT22;4517;49.020;12.066;2022-12-18T12:38:30;-2.60;99.90
8965;DHT22;4517;49.020;12.066;2022-12-18T12:41:02;-2.50;99.90
8965;DHT22;4517;49.020;12.066;2022-12-18T12:43:35;-2.50;99.90
8965;DHT22;4517;49.020;12.066;2022-12-18T12:46:05;-2.60;99.90
8965;DHT22;4517;49.020;12.066;2022-12-18T12:48:58;-2.50;99.90
8965;DHT22;4517;49.020;12.066;2022-12-18T12:51:43;-2.60;99.90
8965;DHT22;4517;49.020;12.066;2022-12-18T12:54:20;-2.70;99.90
8965;DHT22;4517;49.020;12.066;2022-12-18T12:56:59;-2.70;99.90
8965;DHT22;4517;49.020;12.066;2022-12-18T12:59:37;-2.60;99.90
8965;DHT22;4517;49.020;12.066;2022-12-18T13:02:16;-2.50;99.90
8965;DHT22;4517;49.020;12.066;2022-12-18T13:07:39;-2.60;99.90
8965;DHT22;4517;49.020;12.066;2022-12-18T13:13:20;-2.40;99.90
8965;DHT22;4517;49.020;12.066;2022-12-18T13:15:48;-2.50;99.90
8965;DHT22;4517;49.020;12.066;2022-12-18T13:18:20;-2.60;99.90
8965;DHT22;4517;49.020;12.066;2022-12-18T13:20:46;-2.60;99.90
8965;DHT22;4517;49.020;12.066;2022-12-18T13:25:51;-2.50;99.90
8965;DHT22;4517;49.020;12.066;2022-12-18T13:30:52;-2.40;99.90
8965;DHT22;4517;49.020;12.066;2022-12-18T13:38:36;-2.70;99.90
8965;DHT22;4517;49.020;12.066;2022-12-18T13:43:46;-2.80;99.90
8965;DHT22;4517;49.020;12.066;2022-12-18T13:46:27;-2.90;99.90
8965;DHT22;4517;49.020;12.066;2022-12-18T13:49:06;-3.10;99.90
8965;DHT22;4517;49.020;12.066;2022-12-18T13:51:44;-3.10;99.90
8965;DHT22;4517;49.020;12.066;2022-12-18T13:54:28;-3.20;99.90
8965;DHT22;4517;49.020;12.066;2022-12-18T13:56:56;-3.20;99.90
8965;DHT22;4517;49.020;12.066;2022-12-18T13:59:26;-3.20;99.90
8965;DHT22;4517;49.020;12.066;2022-12-18T14:01:55;-3.30;99.90
8965;DHT22;4517;49.020;12.066;2022-12-18T14:06:56;-3.30;99.90
8965;DHT22;4517;49.020;12.066;2022-12-18T14:09:33;-3.50;99.90
8965;DHT22;4517;49.020;12.066;2022-12-18T14:12:00;-3.50;99.90
8965;DHT22;4517;49.020;12.066;2022-12-18T14:14:47;-3.60;99.90
8965;DHT22;4517;49.020;12.066;2022-12-18T14:17:15;-3.70;99.90
8965;DHT22;4517;49.020;12.066;2022-12-18T14:19:44;-3.70;99.90
8965;DHT22;4517;49.020;12.066;2022-12-18T14:22:16;-3.80;99.90
8965;DHT22;4517;49.020;12.066;2022-12-18T14:24:42;-4.00;99.90
8965;DHT22;4517;49.020;12.066;2022-12-18T14:27:24;-4.00;99.90
8965;DHT22;4517;49.020;12.066;2022-12-18T14:29:50;-4.10;99.90
8965;DHT22;4517;49.020;12.066;2022-12-18T14:32:18;-4.20;99.90
8965;DHT22;4517;49.020;12.066;2022-12-18T14:34:53;-4.30;99.90
8965;DHT22;4517;49.020;12.066;2022-12-18T14:37:24;-4.40;99.90
8965;DHT22;4517;49.020;12.066;2022-12-18T14:40:01;-4.50;99.90
8965;DHT22;4517;49.020;12.066;2022-12-18T14:42:28;-4.60;99.90
8965;DHT22;4517;49.020;12.066;2022-12-18T14:47:59;-4.70;99.90
8965;DHT22;4517;49.020;12.066;2022-12-18T14:50:25;-4.90;99.90
8965;DHT22;4517;49.020;12.066;2022-12-18T14:52:51;-4.80;99.90
8965;DHT22;4517;49.020;12.066;2022-12-18T14:55:19;-4.90;99.90
8965;DHT22;4517;49.020;12.066;2022-12-18T14:57:45;-5.00;99.90
8965;DHT22;4517;49.020;12.066;2022-12-18T15:00:17;-4.90;99.90
8965;DHT22;4517;49.020;12.066;2022-12-18T15:02:50;-5.00;99.90
8965;DHT22;4517;49.020;12.066;2022-12-18T15:07:49;-5.00;99.90
8965;DHT22;4517;49.020;12.066;2022-12-18T15:10:23;-5.10;99.90
8965;DHT22;4517;49.020;12.066;2022-12-18T15:13:05;-5.10;99.90
8965;DHT22;4517;49.020;12.066;2022-12-18T15:20:55;-5.30;99.90
8965;DHT22;4517;49.020;12.066;2022-12-18T15:23:33;-5.30;99.90
8965;DHT22;4517;49.020;12.066;2022-12-18T15:26:05;-5.30;99.90
8965;DHT22;4517;49.020;12.066;2022-12-18T15:33:36;-5.40;99.90
8965;DHT22;4517;49.020;12.066;2022-12-18T15:36:04;-5.40;99.90
8965;DHT22;4517;49.020;12.066;2022-12-18T15:38:31;-5.40;99.90
8965;DHT22;4517;49.020;12.066;2022-12-18T15:40:57;-5.40;99.90
8965;DHT22;4517;49.020;12.066;2022-12-18T15:43:23;-5.50;99.90
8965;DHT22;4517;49.020;12.066;2022-12-18T15:46:02;-5.50;99.90
8965;DHT22;4517;49.020;12.066;2022-12-18T15:48:28;-5.50;99.90
8965;DHT22;4517;49.020;12.066;2022-12-18T15:50:56;-5.60;99.90
8965;DHT22;4517;49.020;12.066;2022-12-18T15:53:25;-5.60;99.90
8965;DHT22;4517;49.020;12.066;2022-12-18T15:55:53;-5.60;99.90
8965;DHT22;4517;49.020;12.066;2022-12-18T15:58:54;-5.70;99.90
8965;DHT22;4517;49.020;12.066;2022-12-18T16:01:20;-5.80;99.90
8965;DHT22;4517;49.020;12.066;2022-12-18T16:03:47;-5.90;99.90
8965;DHT22;4517;49.020;12.066;2022-12-18T16:06:13;-5.90;99.90
8965;DHT22;4517;49.020;12.066;2022-12-18T16:08:39;-5.90;99.90
8965;DHT22;4517;49.020;12.066;2022-12-18T16:11:05;-5.90;99.90
8965;DHT22;4517;49.020;12.066;2022-12-18T16:13:31;-5.90;99.90
8965;DHT22;4517;49.020;12.066;2022-12-18T16:15:56;-5.90;99.90
8965;DHT22;4517;49.020;12.066;2022-12-18T16:18:23;-6.00;99.90
8965;DHT22;4517;49.020;12.066;2022-12-18T16:20:49;-6.10;99.90
8965;DHT22;4517;49.020;12.066;2022-12-18T16:23:14;-6.10;99.90
8965;DHT22;4517;49.020;12.066;2022-12-18T16:25:40;-6.10;99.90
8965;DHT22;4517;49.020;12.066;2022-12-18T16:28:06;-6.10;99.90
8965;DHT22;4517;49.020;12.066;2022-12-18T16:30:31;-6.10;99.90
8965;DHT22;4517;49.020;12.066;2022-12-18T16:32:58;-6.10;99.90
8965;DHT22;4517;49.020;12.066;2022-12-18T16:35:25;-6.20;99.90
8965;DHT22;4517;49.020;12.066;2022-12-18T16:37:52;-6.10;99.90
8965;DHT22;4517;49.020;12.066;2022-12-18T16:40:18;-6.10;99.90
8965;DHT22;4517;49.020;12.066;2022-12-18T16:42:45;-6.10;99.90
8965;DHT22;4517;49.020;12.066;2022-12-18T16:45:17;-6.10;99.90
8965;DHT22;4517;49.020;12.066;2022-12-18T16:47:43;-6.00;99.90
8965;DHT22;4517;49.020;12.066;2022-12-18T16:50:09;-6.00;99.90
8965;DHT22;4517;49.020;12.066;2022-12-18T16:52:35;-5.90;99.90
8965;DHT22;4517;49.020;12.066;2022-12-18T16:55:01;-6.00;99.90
8965;DHT22;4517;49.020;12.066;2022-12-18T16:57:28;-6.00;99.90
8965;DHT22;4517;49.020;12.066;2022-12-18T16:59:54;-6.10;99.90
8965;DHT22;4517;49.020;12.066;2022-12-18T17:02:23;-6.20;99.90
8965;DHT22;4517;49.020;12.066;2022-12-18T17:04:49;-6.20;99.90
8965;DHT22;4517;49.020;12.066;2022-12-18T17:07:15;-6.20;99.90
8965;DHT22;4517;49.020;12.066;2022-12-18T17:09:41;-6.30;99.90
8965;DHT22;4517;49.020;12.066;2022-12-18T17:12:07;-6.40;99.90
8965;DHT22;4517;49.020;12.066;2022-12-18T17:14:33;-6.40;99.90
8965;DHT22;4517;49.020;12.066;2022-12-18T17:16:59;-6.40;99.90
8965;DHT22;4517;49.020;12.066;2022-12-18T17:19:25;-6.50;99.90
8965;DHT22;4517;49.020;12.066;2022-12-18T17:21:51;-6.50;99.90
8965;DHT22;4517;49.020;12.066;2022-12-18T17:24:18;-6.50;99.90
8965;DHT22;4517;49.020;12.066;2022-12-18T17:26:44;-6.50;99.90
8965;DHT22;4517;49.020;12.066;2022-12-18T17:29:15;-6.50;99.90